sensor_id;sensor_type;location;lat;lon;timestamp;P1;durP1;ratioP1;P2;durP2;ratioP2
74342;SDS011;62767;50.300;8.070;2024-02-23T00:01:43;0.35;;;0.35;;
74342;SDS011;62767;50.300;8.070;2024-02-23T00:04:09;0.45;;;0.38;;
74342;SDS011;62767;50.300;8.070;2024-02-23T00:06:35;0.47;;;0.40;;
74342;SDS011;62767;50.300;8.070;2024-02-23T00:09:01;0.63;;;0.40;;
74342;SDS011;62767;50.300;8.070;2024-02-23T00:11:27;0.57;;;0.40;;
74342;SDS011;62767;50.300;8.070;2024-02-23T00:13:53;0.77;;;0.40;;
74342;SDS011;62767;50.300;8.070;2024-02-23T00:16:19;1.17;;;0.35;;
74342;SDS011;62767;50.300;8.070;2024-02-23T00:18:45;0.75;;;0.45;;
74342;SDS011;62767;50.300;8.070;2024-02-23T00:21:10;0.47;;;0.40;;
74342;SDS011;62767;50.300;8.070;2024-02-23T00:23:36;0.88;;;0.50;;
74342;SDS011;62767;50.300;8.070;2024-02-23T00:26:01;0.40;;;0.40;;
74342;SDS011;62767;50.300;8.070;2024-02-23T00:28:27;0.43;;;0.40;;
74342;SDS011;62767;50.300;8.070;2024-02-23T00:30:53;0.43;;;0.30;;
74342;SDS011;62767;50.300;8.070;2024-02-23T00:33:18;0.30;;;0.30;;
74342;SDS011;62767;50.300;8.070;2024-02-23T00:35:44;0.55;;;0.40;;
74342;SDS011;62767;50.300;8.070;2024-02-23T00:38:09;0.43;;;0.30;;
74342;SDS011;62767;50.300;8.070;2024-02-23T00:40:35;0.95;;;0.30;;
74342;SDS011;62767;50.300;8.070;2024-02-23T00:43:00;0.30;;;0.30;;
74342;SDS011;62767;50.300;8.070;2024-02-23T00:45:26;0.50;;;0.40;;
74342;SDS011;62767;50.300;8.070;2024-02-23T00:47:52;0.50;;;0.40;;
74342;SDS011;62767;50.300;8.070;2024-02-23T00:50:17;0.65;;;0.50;;
74342;SDS011;62767;50.300;8.070;2024-02-23T00:52:43;0.50;;;0.32;;
74342;SDS011;62767;50.300;8.070;2024-02-23T00:55:08;1.50;;;0.35;;
74342;SDS011;62767;50.300;8.070;2024-02-23T00:57:34;0.95;;;0.40;;
74342;SDS011;62767;50.300;8.070;2024-02-23T01:00:01;0.40;;;0.32;;
74342;SDS011;62767;50.300;8.070;2024-02-23T01:02:28;1.17;;;0.40;;
74342;SDS011;62767;50.300;8.070;2024-02-23T01:04:54;0.40;;;0.40;;
74342;SDS011;62767;50.300;8.070;2024-02-23T01:07:22;0.55;;;0.32;;
74342;SDS011;62767;50.300;8.070;2024-02-23T01:09:48;0.47;;;0.30;;
74342;SDS011;62767;50.300;8.070;2024-02-23T01:12:13;0.77;;;0.38;;
74342;SDS011;62767;50.300;8.070;2024-02-23T01:14:39;0.63;;;0.28;;
74342;SDS011;62767;50.300;8.070;2024-02-23T01:17:04;0.55;;;0.22;;
74342;SDS011;62767;50.300;8.070;2024-02-23T01:19:30;0.68;;;0.43;;
74342;SDS011;62767;50.300;8.070;2024-02-23T01:21:55;1.15;;;0.30;;
74342;SDS011;62767;50.300;8.070;2024-02-23T01:24:27;0.45;;;0.32;;
74342;SDS011;62767;50.300;8.070;2024-02-23T01:26:54;0.40;;;0.30;;
74342;SDS011;62767;50.300;8.070;2024-02-23T01:29:24;0.30;;;0.30;;
74342;SDS011;62767;50.300;8.070;2024-02-23T01:31:51;0.30;;;0.20;;
74342;SDS011;62767;50.300;8.070;2024-02-23T01:34:16;1.23;;;0.22;;
74342;SDS011;62767;50.300;8.070;2024-02-23T01:36:42;0.70;;;0.30;;
74342;SDS011;62767;50.300;8.070;2024-02-23T01:39:08;0.50;;;0.40;;
74342;SDS011;62767;50.300;8.070;2024-02-23T01:41:34;0.32;;;0.25;;
74342;SDS011;62767;50.300;8.070;2024-02-23T01:44:00;0.52;;;0.30;;
74342;SDS011;62767;50.300;8.070;2024-02-23T01:46:26;0.30;;;0.30;;
74342;SDS011;62767;50.300;8.070;2024-02-23T01:48:51;0.93;;;0.40;;
74342;SDS011;62767;50.300;8.070;2024-02-23T01:51:17;0.22;;;0.22;;
74342;SDS011;62767;50.300;8.070;2024-02-23T01:53:42;0.63;;;0.32;;
74342;SDS011;62767;50.300;8.070;2024-02-23T01:56:08;0.40;;;0.20;;
74342;SDS011;62767;50.300;8.070;2024-02-23T01:58:38;0.75;;;0.40;;
74342;SDS011;62767;50.300;8.070;2024-02-23T02:01:05;1.35;;;0.30;;
74342;SDS011;62767;50.300;8.070;2024-02-23T02:03:30;0.43;;;0.25;;
74342;SDS011;62767;50.300;8.070;2024-02-23T02:05:57;0.30;;;0.28;;
74342;SDS011;62767;50.300;8.070;2024-02-23T02:08:26;0.60;;;0.32;;
74342;SDS011;62767;50.300;8.070;2024-02-23T02:10:51;2.25;;;0.20;;
74342;SDS011;62767;50.300;8.070;2024-02-23T02:13:17;0.55;;;0.30;;
74342;SDS011;62767;50.300;8.070;2024-02-23T02:15:42;0.30;;;0.30;;
74342;SDS011;62767;50.300;8.070;2024-02-23T02:18:09;0.38;;;0.20;;
74342;SDS011;62767;50.300;8.070;2024-02-23T02:20:36;0.47;;;0.30;;
74342;SDS011;62767;50.300;8.070;2024-02-23T02:23:02;0.75;;;0.30;;
74342;SDS011;62767;50.300;8.070;2024-02-23T02:25:28;1.30;;;0.40;;
74342;SDS011;62767;50.300;8.070;2024-02-23T02:27:54;0.38;;;0.35;;
74342;SDS011;62767;50.300;8.070;2024-02-23T02:30:19;0.40;;;0.25;;
74342;SDS011;62767;50.300;8.070;2024-02-23T02:32:45;0.47;;;0.28;;
74342;SDS011;62767;50.300;8.070;2024-02-23T02:35:11;0.52;;;0.30;;
74342;SDS011;62767;50.300;8.070;2024-02-23T02:37:37;0.10;;;0.10;;
74342;SDS011;62767;50.300;8.070;2024-02-23T02:40:03;0.20;;;0.20;;
74342;SDS011;62767;50.300;8.070;2024-02-23T02:42:28;0.28;;;0.22;;
74342;SDS011;62767;50.300;8.070;2024-02-23T02:44:54;0.10;;;0.10;;
74342;SDS011;62767;50.300;8.070;2024-02-23T02:47:19;0.40;;;0.25;;
74342;SDS011;62767;50.300;8.070;2024-02-23T02:49:45;0.32;;;0.20;;
74342;SDS011;62767;50.300;8.070;2024-02-23T02:52:10;0.28;;;0.28;;
74342;SDS011;62767;50.300;8.070;2024-02-23T02:54:36;0.52;;;0.20;;
74342;SDS011;62767;50.300;8.070;2024-02-23T02:57:01;0.28;;;0.28;;
74342;SDS011;62767;50.300;8.070;2024-02-23T02:59:27;0.30;;;0.20;;
74342;SDS011;62767;50.300;8.070;2024-02-23T03:01:52;0.82;;;0.30;;
74342;SDS011;62767;50.300;8.070;2024-02-23T03:04:18;0.47;;;0.20;;
74342;SDS011;62767;50.300;8.070;2024-02-23T03:06:43;0.10;;;0.10;;
74342;SDS011;62767;50.300;8.070;2024-02-23T03:09:09;0.50;;;0.30;;
74342;SDS011;62767;50.300;8.070;2024-02-23T03:11:35;0.25;;;0.25;;
74342;SDS011;62767;50.300;8.070;2024-02-23T03:14:01;0.25;;;0.20;;
74342;SDS011;62767;50.300;8.070;2024-02-23T03:16:26;0.10;;;0.10;;
74342;SDS011;62767;50.300;8.070;2024-02-23T03:18:52;0.20;;;0.20;;
74342;SDS011;62767;50.300;8.070;2024-02-23T03:21:19;0.30;;;0.20;;
74342;SDS011;62767;50.300;8.070;2024-02-23T03:23:45;0.20;;;0.20;;
74342;SDS011;62767;50.300;8.070;2024-02-23T03:26:10;1.30;;;0.20;;
74342;SDS011;62767;50.300;8.070;2024-02-23T03:28:36;0.20;;;0.10;;
74342;SDS011;62767;50.300;8.070;2024-02-23T03:31:01;0.43;;;0.20;;
74342;SDS011;62767;50.300;8.070;2024-02-23T03:33:27;0.32;;;0.28;;
74342;SDS011;62767;50.300;8.070;2024-02-23T03:35:52;0.50;;;0.30;;
74342;SDS011;62767;50.300;8.070;2024-02-23T03:38:18;0.57;;;0.30;;
74342;SDS011;62767;50.300;8.070;2024-02-23T03:40:43;0.30;;;0.20;;
74342;SDS011;62767;50.300;8.070;2024-02-23T03:43:09;0.38;;;0.22;;
74342;SDS011;62767;50.300;8.070;2024-02-23T03:45:34;0.10;;;0.10;;
74342;SDS011;62767;50.300;8.070;2024-02-23T03:48:00;0.15;;;0.10;;
74342;SDS011;62767;50.300;8.070;2024-02-23T03:50:28;0.30;;;0.20;;
74342;SDS011;62767;50.300;8.070;2024-02-23T03:52:54;0.22;;;0.13;;
74342;SDS011;62767;50.300;8.070;2024-02-23T03:55:19;0.17;;;0.17;;
74342;SDS011;62767;50.300;8.070;2024-02-23T03:57:45;0.35;;;0.20;;
74342;SDS011;62767;50.300;8.070;2024-02-23T04:00:11;1.20;;;0.30;;
74342;SDS011;62767;50.300;8.070;2024-02-23T04:02:40;0.10;;;0.10;;
74342;SDS011;62767;50.300;8.070;2024-02-23T04:05:06;0.25;;;0.20;;
74342;SDS011;62767;50.300;8.070;2024-02-23T04:07:32;0.50;;;0.30;;
74342;SDS011;62767;50.300;8.070;2024-02-23T04:09:57;0.47;;;0.20;;
74342;SDS011;62767;50.300;8.070;2024-02-23T04:12:23;0.28;;;0.28;;
74342;SDS011;62767;50.300;8.070;2024-02-23T04:14:49;1.65;;;0.28;;
74342;SDS011;62767;50.300;8.070;2024-02-23T04:17:15;0.20;;;0.17;;
74342;SDS011;62767;50.300;8.070;2024-02-23T04:19:41;0.20;;;0.20;;
74342;SDS011;62767;50.300;8.070;2024-02-23T04:22:08;0.10;;;0.10;;
74342;SDS011;62767;50.300;8.070;2024-02-23T04:24:38;0.17;;;0.10;;
74342;SDS011;62767;50.300;8.070;2024-02-23T04:27:07;0.50;;;0.20;;
74342;SDS011;62767;50.300;8.070;2024-02-23T04:29:33;0.10;;;0.10;;
74342;SDS011;62767;50.300;8.070;2024-02-23T04:31:59;0.30;;;0.10;;
74342;SDS011;62767;50.300;8.070;2024-02-23T04:34:26;0.30;;;0.30;;
74342;SDS011;62767;50.300;8.070;2024-02-23T04:36:52;0.05;;;0.05;;
74342;SDS011;62767;50.300;8.070;2024-02-23T04:39:18;0.60;;;0.20;;
74342;SDS011;62767;50.300;8.070;2024-02-23T04:41:43;0.40;;;0.20;;
74342;SDS011;62767;50.300;8.070;2024-02-23T04:44:08;0.43;;;0.28;;
74342;SDS011;62767;50.300;8.070;2024-02-23T04:46:34;0.25;;;0.20;;
74342;SDS011;62767;50.300;8.070;2024-02-23T04:49:00;0.22;;;0.22;;
74342;SDS011;62767;50.300;8.070;2024-02-23T04:51:26;0.38;;;0.20;;
74342;SDS011;62767;50.300;8.070;2024-02-23T04:53:51;0.47;;;0.10;;
74342;SDS011;62767;50.300;8.070;2024-02-23T04:56:17;0.13;;;0.13;;
74342;SDS011;62767;50.300;8.070;2024-02-23T04:58:43;0.40;;;0.15;;
74342;SDS011;62767;50.300;8.070;2024-02-23T05:01:09;0.57;;;0.30;;
74342;SDS011;62767;50.300;8.070;2024-02-23T05:03:34;0.63;;;0.30;;
74342;SDS011;62767;50.300;8.070;2024-02-23T05:06:01;0.55;;;0.20;;
74342;SDS011;62767;50.300;8.070;2024-02-23T05:10:55;0.47;;;0.20;;
74342;SDS011;62767;50.300;8.070;2024-02-23T05:13:21;0.38;;;0.20;;
74342;SDS011;62767;50.300;8.070;2024-02-23T05:15:46;0.38;;;0.20;;
74342;SDS011;62767;50.300;8.070;2024-02-23T05:18:11;0.10;;;0.10;;
74342;SDS011;62767;50.300;8.070;2024-02-23T05:20:37;0.20;;;0.15;;
74342;SDS011;62767;50.300;8.070;2024-02-23T05:23:02;0.50;;;0.20;;
74342;SDS011;62767;50.300;8.070;2024-02-23T05:25:28;0.40;;;0.20;;
74342;SDS011;62767;50.300;8.070;2024-02-23T05:27:54;0.47;;;0.10;;
74342;SDS011;62767;50.300;8.070;2024-02-23T05:30:19;0.55;;;0.25;;
74342;SDS011;62767;50.300;8.070;2024-02-23T05:32:44;0.10;;;0.10;;
74342;SDS011;62767;50.300;8.070;2024-02-23T05:35:10;0.30;;;0.20;;
74342;SDS011;62767;50.300;8.070;2024-02-23T05:37:36;0.50;;;0.20;;
74342;SDS011;62767;50.300;8.070;2024-02-23T05:40:03;0.43;;;0.20;;
74342;SDS011;62767;50.300;8.070;2024-02-23T05:42:38;0.25;;;0.22;;
74342;SDS011;62767;50.300;8.070;2024-02-23T05:45:04;0.35;;;0.20;;
74342;SDS011;62767;50.300;8.070;2024-02-23T05:47:34;0.43;;;0.25;;
74342;SDS011;62767;50.300;8.070;2024-02-23T05:50:07;0.60;;;0.20;;
74342;SDS011;62767;50.300;8.070;2024-02-23T05:52:33;0.22;;;0.10;;
74342;SDS011;62767;50.300;8.070;2024-02-23T05:54:59;0.20;;;0.20;;
74342;SDS011;62767;50.300;8.070;2024-02-23T05:57:25;0.65;;;0.30;;
74342;SDS011;62767;50.300;8.070;2024-02-23T06:02:17;0.20;;;0.20;;
74342;SDS011;62767;50.300;8.070;2024-02-23T06:04:43;0.30;;;0.15;;
74342;SDS011;62767;50.300;8.070;2024-02-23T06:07:08;1.80;;;0.20;;
74342;SDS011;62767;50.300;8.070;2024-02-23T06:09:34;0.50;;;0.20;;
74342;SDS011;62767;50.300;8.070;2024-02-23T06:11:59;0.20;;;0.15;;
74342;SDS011;62767;50.300;8.070;2024-02-23T06:14:25;0.80;;;0.20;;
74342;SDS011;62767;50.300;8.070;2024-02-23T06:16:50;0.75;;;0.20;;
74342;SDS011;62767;50.300;8.070;2024-02-23T06:19:16;0.30;;;0.20;;
74342;SDS011;62767;50.300;8.070;2024-02-23T06:21:41;0.35;;;0.20;;
74342;SDS011;62767;50.300;8.070;2024-02-23T06:24:07;0.08;;;0.08;;
74342;SDS011;62767;50.300;8.070;2024-02-23T06:26:34;0.60;;;0.30;;
74342;SDS011;62767;50.300;8.070;2024-02-23T06:29:00;1.05;;;0.30;;
74342;SDS011;62767;50.300;8.070;2024-02-23T06:31:25;1.00;;;0.28;;
74342;SDS011;62767;50.300;8.070;2024-02-23T06:33:51;0.47;;;0.20;;
74342;SDS011;62767;50.300;8.070;2024-02-23T06:36:17;0.88;;;0.20;;
74342;SDS011;62767;50.300;8.070;2024-02-23T06:38:44;0.55;;;0.20;;
74342;SDS011;62767;50.300;8.070;2024-02-23T06:41:10;2.35;;;0.30;;
74342;SDS011;62767;50.300;8.070;2024-02-23T06:43:36;0.75;;;0.20;;
74342;SDS011;62767;50.300;8.070;2024-02-23T06:46:08;0.95;;;0.28;;
74342;SDS011;62767;50.300;8.070;2024-02-23T06:48:37;1.33;;;0.30;;
74342;SDS011;62767;50.300;8.070;2024-02-23T06:51:06;1.27;;;0.20;;
74342;SDS011;62767;50.300;8.070;2024-02-23T06:53:35;0.30;;;0.20;;
74342;SDS011;62767;50.300;8.070;2024-02-23T06:56:00;0.10;;;0.10;;
74342;SDS011;62767;50.300;8.070;2024-02-23T06:58:27;1.35;;;0.70;;
74342;SDS011;62767;50.300;8.070;2024-02-23T07:00:53;0.90;;;0.38;;
74342;SDS011;62767;50.300;8.070;2024-02-23T07:03:18;0.93;;;0.40;;
74342;SDS011;62767;50.300;8.070;2024-02-23T07:05:44;0.45;;;0.22;;
74342;SDS011;62767;50.300;8.070;2024-02-23T07:08:10;0.47;;;0.20;;
74342;SDS011;62767;50.300;8.070;2024-02-23T07:10:36;1.08;;;0.30;;
74342;SDS011;62767;50.300;8.070;2024-02-23T07:13:02;1.98;;;0.50;;
74342;SDS011;62767;50.300;8.070;2024-02-23T07:15:27;0.93;;;0.55;;
74342;SDS011;62767;50.300;8.070;2024-02-23T07:17:53;2.08;;;0.40;;
74342;SDS011;62767;50.300;8.070;2024-02-23T07:20:18;0.82;;;0.30;;
74342;SDS011;62767;50.300;8.070;2024-02-23T07:22:44;1.05;;;0.40;;
74342;SDS011;62767;50.300;8.070;2024-02-23T07:25:11;0.22;;;0.20;;
74342;SDS011;62767;50.300;8.070;2024-02-23T07:27:37;0.52;;;0.20;;
74342;SDS011;62767;50.300;8.070;2024-02-23T07:30:02;0.30;;;0.20;;
74342;SDS011;62767;50.300;8.070;2024-02-23T07:32:29;0.57;;;0.30;;
74342;SDS011;62767;50.300;8.070;2024-02-23T07:34:55;0.40;;;0.20;;
74342;SDS011;62767;50.300;8.070;2024-02-23T07:37:21;0.52;;;0.40;;
74342;SDS011;62767;50.300;8.070;2024-02-23T07:39:46;0.20;;;0.10;;
74342;SDS011;62767;50.300;8.070;2024-02-23T07:42:12;1.08;;;0.45;;
74342;SDS011;62767;50.300;8.070;2024-02-23T07:44:40;1.33;;;0.20;;
74342;SDS011;62767;50.300;8.070;2024-02-23T07:47:05;0.95;;;0.32;;
74342;SDS011;62767;50.300;8.070;2024-02-23T07:49:31;0.73;;;0.30;;
74342;SDS011;62767;50.300;8.070;2024-02-23T07:51:56;0.17;;;0.10;;
74342;SDS011;62767;50.300;8.070;2024-02-23T07:54:22;1.05;;;0.40;;
74342;SDS011;62767;50.300;8.070;2024-02-23T07:56:47;1.67;;;0.30;;
74342;SDS011;62767;50.300;8.070;2024-02-23T07:59:13;0.52;;;0.25;;
74342;SDS011;62767;50.300;8.070;2024-02-23T08:01:38;1.15;;;0.30;;
74342;SDS011;62767;50.300;8.070;2024-02-23T08:04:05;0.73;;;0.30;;
74342;SDS011;62767;50.300;8.070;2024-02-23T08:06:31;0.40;;;0.20;;
74342;SDS011;62767;50.300;8.070;2024-02-23T08:08:56;0.15;;;0.15;;
74342;SDS011;62767;50.300;8.070;2024-02-23T08:11:22;0.82;;;0.20;;
74342;SDS011;62767;50.300;8.070;2024-02-23T08:13:47;0.63;;;0.40;;
74342;SDS011;62767;50.300;8.070;2024-02-23T08:16:13;1.27;;;0.30;;
74342;SDS011;62767;50.300;8.070;2024-02-23T08:18:41;0.28;;;0.20;;
74342;SDS011;62767;50.300;8.070;2024-02-23T08:21:06;0.82;;;0.40;;
74342;SDS011;62767;50.300;8.070;2024-02-23T08:23:32;1.00;;;0.40;;
74342;SDS011;62767;50.300;8.070;2024-02-23T08:25:58;0.63;;;0.30;;
74342;SDS011;62767;50.300;8.070;2024-02-23T08:28:25;0.63;;;0.32;;
74342;SDS011;62767;50.300;8.070;2024-02-23T08:30:50;0.93;;;0.28;;
74342;SDS011;62767;50.300;8.070;2024-02-23T08:33:16;1.33;;;0.52;;
74342;SDS011;62767;50.300;8.070;2024-02-23T08:35:41;0.73;;;0.30;;
74342;SDS011;62767;50.300;8.070;2024-02-23T08:38:07;0.50;;;0.40;;
74342;SDS011;62767;50.300;8.070;2024-02-23T08:40:34;1.17;;;0.47;;
74342;SDS011;62767;50.300;8.070;2024-02-23T08:43:00;0.65;;;0.38;;
74342;SDS011;62767;50.300;8.070;2024-02-23T08:45:25;1.33;;;0.30;;
74342;SDS011;62767;50.300;8.070;2024-02-23T08:47:51;0.40;;;0.30;;
74342;SDS011;62767;50.300;8.070;2024-02-23T08:50:16;0.52;;;0.30;;
74342;SDS011;62767;50.300;8.070;2024-02-23T08:52:42;1.27;;;0.47;;
74342;SDS011;62767;50.300;8.070;2024-02-23T08:55:07;0.85;;;0.40;;
74342;SDS011;62767;50.300;8.070;2024-02-23T08:57:33;1.17;;;0.50;;
74342;SDS011;62767;50.300;8.070;2024-02-23T08:59:59;0.73;;;0.35;;
74342;SDS011;62767;50.300;8.070;2024-02-23T09:02:24;1.42;;;0.47;;
74342;SDS011;62767;50.300;8.070;2024-02-23T09:04:50;1.88;;;0.45;;
74342;SDS011;62767;50.300;8.070;2024-02-23T09:07:16;0.90;;;0.52;;
74342;SDS011;62767;50.300;8.070;2024-02-23T09:09:45;1.13;;;0.60;;
74342;SDS011;62767;50.300;8.070;2024-02-23T09:12:11;1.23;;;0.52;;
74342;SDS011;62767;50.300;8.070;2024-02-23T09:14:36;0.95;;;0.50;;
74342;SDS011;62767;50.300;8.070;2024-02-23T09:17:04;1.55;;;0.63;;
74342;SDS011;62767;50.300;8.070;2024-02-23T09:19:29;1.45;;;0.70;;
74342;SDS011;62767;50.300;8.070;2024-02-23T09:21:55;5.32;;;0.68;;
74342;SDS011;62767;50.300;8.070;2024-02-23T09:24:20;1.52;;;0.65;;
74342;SDS011;62767;50.300;8.070;2024-02-23T09:26:46;1.02;;;0.60;;
74342;SDS011;62767;50.300;8.070;2024-02-23T09:29:13;1.10;;;0.70;;
74342;SDS011;62767;50.300;8.070;2024-02-23T09:31:38;1.00;;;0.60;;
74342;SDS011;62767;50.300;8.070;2024-02-23T09:34:04;2.50;;;0.80;;
74342;SDS011;62767;50.300;8.070;2024-02-23T09:36:29;1.67;;;0.90;;
74342;SDS011;62767;50.300;8.070;2024-02-23T09:38:55;2.63;;;0.88;;
74342;SDS011;62767;50.300;8.070;2024-02-23T09:41:22;1.17;;;0.57;;
74342;SDS011;62767;50.300;8.070;2024-02-23T09:46:18;2.75;;;1.00;;
74342;SDS011;62767;50.300;8.070;2024-02-23T09:48:44;1.65;;;0.80;;
74342;SDS011;62767;50.300;8.070;2024-02-23T09:53:37;2.03;;;0.77;;
74342;SDS011;62767;50.300;8.070;2024-02-23T09:56:03;2.03;;;1.00;;
74342;SDS011;62767;50.300;8.070;2024-02-23T09:58:30;1.98;;;1.00;;
74342;SDS011;62767;50.300;8.070;2024-02-23T10:00:58;2.17;;;0.85;;
74342;SDS011;62767;50.300;8.070;2024-02-23T10:05:53;1.90;;;0.77;;
74342;SDS011;62767;50.300;8.070;2024-02-23T10:08:19;1.63;;;0.73;;
74342;SDS011;62767;50.300;8.070;2024-02-23T10:10:48;2.05;;;0.90;;
74342;SDS011;62767;50.300;8.070;2024-02-23T10:13:20;2.75;;;1.00;;
74342;SDS011;62767;50.300;8.070;2024-02-23T10:15:48;1.33;;;0.77;;
74342;SDS011;62767;50.300;8.070;2024-02-23T10:18:14;1.95;;;0.82;;
74342;SDS011;62767;50.300;8.070;2024-02-23T10:20:42;1.60;;;0.90;;
74342;SDS011;62767;50.300;8.070;2024-02-23T10:23:11;2.00;;;1.05;;
74342;SDS011;62767;50.300;8.070;2024-02-23T10:25:37;1.70;;;0.80;;
74342;SDS011;62767;50.300;8.070;2024-02-23T10:28:03;1.77;;;0.90;;
74342;SDS011;62767;50.300;8.070;2024-02-23T10:30:32;2.30;;;0.95;;
74342;SDS011;62767;50.300;8.070;2024-02-23T10:32:58;2.58;;;0.93;;
74342;SDS011;62767;50.300;8.070;2024-02-23T10:35:24;1.63;;;0.77;;
74342;SDS011;62767;50.300;8.070;2024-02-23T10:37:51;2.28;;;0.98;;
74342;SDS011;62767;50.300;8.070;2024-02-23T10:40:19;1.88;;;0.90;;
74342;SDS011;62767;50.300;8.070;2024-02-23T10:42:47;2.50;;;0.98;;
74342;SDS011;62767;50.300;8.070;2024-02-23T10:45:19;1.48;;;0.70;;
74342;SDS011;62767;50.300;8.070;2024-02-23T10:47:50;2.17;;;1.00;;
74342;SDS011;62767;50.300;8.070;2024-02-23T10:50:17;2.53;;;0.85;;
74342;SDS011;62767;50.300;8.070;2024-02-23T10:52:44;2.17;;;0.98;;
74342;SDS011;62767;50.300;8.070;2024-02-23T10:55:10;2.90;;;1.00;;
74342;SDS011;62767;50.300;8.070;2024-02-23T10:57:36;1.60;;;0.80;;
74342;SDS011;62767;50.300;8.070;2024-02-23T11:00:02;1.58;;;0.90;;
74342;SDS011;62767;50.300;8.070;2024-02-23T11:02:32;1.83;;;0.90;;
74342;SDS011;62767;50.300;8.070;2024-02-23T11:05:01;1.65;;;0.90;;
74342;SDS011;62767;50.300;8.070;2024-02-23T11:07:29;1.42;;;0.77;;
74342;SDS011;62767;50.300;8.070;2024-02-23T11:09:58;1.70;;;0.73;;
74342;SDS011;62767;50.300;8.070;2024-02-23T11:12:25;1.67;;;0.73;;
74342;SDS011;62767;50.300;8.070;2024-02-23T11:14:51;1.23;;;0.77;;
74342;SDS011;62767;50.300;8.070;2024-02-23T11:17:22;1.35;;;0.80;;
74342;SDS011;62767;50.300;8.070;2024-02-23T11:19:51;1.70;;;0.80;;
74342;SDS011;62767;50.300;8.070;2024-02-23T11:24:52;1.60;;;0.90;;
74342;SDS011;62767;50.300;8.070;2024-02-23T11:27:18;1.80;;;0.70;;
74342;SDS011;62767;50.300;8.070;2024-02-23T11:29:47;1.70;;;0.80;;
74342;SDS011;62767;50.300;8.070;2024-02-23T11:32:16;1.88;;;0.80;;
74342;SDS011;62767;50.300;8.070;2024-02-23T11:34:53;1.80;;;1.00;;
74342;SDS011;62767;50.300;8.070;2024-02-23T11:37:21;1.70;;;0.90;;
74342;SDS011;62767;50.300;8.070;2024-02-23T11:39:47;1.98;;;0.82;;
74342;SDS011;62767;50.300;8.070;2024-02-23T11:42:14;1.88;;;0.90;;
74342;SDS011;62767;50.300;8.070;2024-02-23T11:44:39;1.23;;;0.60;;
74342;SDS011;62767;50.300;8.070;2024-02-23T11:47:06;2.28;;;0.85;;
74342;SDS011;62767;50.300;8.070;2024-02-23T11:49:32;2.17;;;1.13;;
74342;SDS011;62767;50.300;8.070;2024-02-23T11:51:58;1.85;;;0.80;;
74342;SDS011;62767;50.300;8.070;2024-02-23T11:54:23;1.08;;;0.55;;
74342;SDS011;62767;50.300;8.070;2024-02-23T11:56:49;1.85;;;0.90;;
74342;SDS011;62767;50.300;8.070;2024-02-23T11:59:18;1.48;;;0.70;;
74342;SDS011;62767;50.300;8.070;2024-02-23T12:01:46;1.70;;;0.70;;
74342;SDS011;62767;50.300;8.070;2024-02-23T12:04:13;1.10;;;0.70;;
74342;SDS011;62767;50.300;8.070;2024-02-23T12:06:39;0.73;;;0.60;;
74342;SDS011;62767;50.300;8.070;2024-02-23T12:09:07;1.30;;;0.77;;
74342;SDS011;62767;50.300;8.070;2024-02-23T12:11:33;1.73;;;0.90;;
74342;SDS011;62767;50.300;8.070;2024-02-23T12:14:00;2.05;;;0.80;;
74342;SDS011;62767;50.300;8.070;2024-02-23T12:16:27;1.20;;;0.65;;
74342;SDS011;62767;50.300;8.070;2024-02-23T12:18:53;2.15;;;0.90;;
74342;SDS011;62767;50.300;8.070;2024-02-23T12:21:23;1.10;;;0.57;;
74342;SDS011;62767;50.300;8.070;2024-02-23T12:23:49;1.15;;;0.70;;
74342;SDS011;62767;50.300;8.070;2024-02-23T12:26:16;2.03;;;0.80;;
74342;SDS011;62767;50.300;8.070;2024-02-23T12:28:43;1.85;;;0.98;;
74342;SDS011;62767;50.300;8.070;2024-02-23T12:31:09;1.25;;;0.70;;
74342;SDS011;62767;50.300;8.070;2024-02-23T12:33:36;0.90;;;0.68;;
74342;SDS011;62767;50.300;8.070;2024-02-23T12:36:03;1.85;;;0.93;;
74342;SDS011;62767;50.300;8.070;2024-02-23T12:38:30;1.45;;;0.73;;
74342;SDS011;62767;50.300;8.070;2024-02-23T12:40:55;1.08;;;0.73;;
74342;SDS011;62767;50.300;8.070;2024-02-23T12:43:21;0.80;;;0.60;;
74342;SDS011;62767;50.300;8.070;2024-02-23T12:45:49;1.83;;;0.90;;
74342;SDS011;62767;50.300;8.070;2024-02-23T12:48:16;1.50;;;0.80;;
74342;SDS011;62767;50.300;8.070;2024-02-23T12:50:42;1.40;;;0.57;;
74342;SDS011;62767;50.300;8.070;2024-02-23T12:53:08;0.93;;;0.50;;
74342;SDS011;62767;50.300;8.070;2024-02-23T12:55:35;1.00;;;0.70;;
74342;SDS011;62767;50.300;8.070;2024-02-23T13:00:27;0.60;;;0.52;;
74342;SDS011;62767;50.300;8.070;2024-02-23T13:02:53;1.40;;;0.65;;
74342;SDS011;62767;50.300;8.070;2024-02-23T13:05:19;1.05;;;0.60;;
74342;SDS011;62767;50.300;8.070;2024-02-23T13:07:45;2.33;;;0.70;;
74342;SDS011;62767;50.300;8.070;2024-02-23T13:10:11;1.02;;;0.70;;
74342;SDS011;62767;50.300;8.070;2024-02-23T13:12:36;1.25;;;0.70;;
74342;SDS011;62767;50.300;8.070;2024-02-23T13:15:02;2.47;;;0.70;;
74342;SDS011;62767;50.300;8.070;2024-02-23T13:17:27;2.03;;;1.02;;
74342;SDS011;62767;50.300;8.070;2024-02-23T13:19:53;1.27;;;0.70;;
74342;SDS011;62767;50.300;8.070;2024-02-23T13:22:19;2.28;;;1.00;;
74342;SDS011;62767;50.300;8.070;2024-02-23T13:24:45;0.90;;;0.63;;
74342;SDS011;62767;50.300;8.070;2024-02-23T13:27:10;1.45;;;0.60;;
74342;SDS011;62767;50.300;8.070;2024-02-23T13:29:36;1.15;;;0.60;;
74342;SDS011;62767;50.300;8.070;2024-02-23T13:32:01;1.35;;;0.70;;
74342;SDS011;62767;50.300;8.070;2024-02-23T13:34:27;0.63;;;0.50;;
74342;SDS011;62767;50.300;8.070;2024-02-23T13:36:52;1.48;;;0.73;;
74342;SDS011;62767;50.300;8.070;2024-02-23T13:39:18;1.40;;;0.60;;
74342;SDS011;62767;50.300;8.070;2024-02-23T13:41:44;2.80;;;0.70;;
74342;SDS011;62767;50.300;8.070;2024-02-23T13:44:09;1.05;;;0.57;;
74342;SDS011;62767;50.300;8.070;2024-02-23T13:46:35;0.77;;;0.50;;
74342;SDS011;62767;50.300;8.070;2024-02-23T13:49:04;0.70;;;0.43;;
74342;SDS011;62767;50.300;8.070;2024-02-23T13:51:32;1.30;;;0.60;;
74342;SDS011;62767;50.300;8.070;2024-02-23T13:53:58;0.95;;;0.47;;
74342;SDS011;62767;50.300;8.070;2024-02-23T13:56:24;0.65;;;0.60;;
74342;SDS011;62767;50.300;8.070;2024-02-23T13:58:49;1.20;;;0.60;;
74342;SDS011;62767;50.300;8.070;2024-02-23T14:01:15;0.90;;;0.50;;
74342;SDS011;62767;50.300;8.070;2024-02-23T14:03:41;1.55;;;0.55;;
74342;SDS011;62767;50.300;8.070;2024-02-23T14:06:06;1.42;;;0.55;;
74342;SDS011;62767;50.300;8.070;2024-02-23T14:08:32;1.17;;;0.60;;
74342;SDS011;62767;50.300;8.070;2024-02-23T14:11:02;0.85;;;0.47;;
74342;SDS011;62767;50.300;8.070;2024-02-23T14:13:31;1.77;;;0.65;;
74342;SDS011;62767;50.300;8.070;2024-02-23T14:20:48;0.70;;;0.50;;
74342;SDS011;62767;50.300;8.070;2024-02-23T14:23:14;2.05;;;0.55;;
74342;SDS011;62767;50.300;8.070;2024-02-23T14:25:39;0.60;;;0.40;;
74342;SDS011;62767;50.300;8.070;2024-02-23T14:28:04;0.75;;;0.43;;
74342;SDS011;62767;50.300;8.070;2024-02-23T14:30:30;0.57;;;0.40;;
74342;SDS011;62767;50.300;8.070;2024-02-23T14:32:56;0.50;;;0.50;;
74342;SDS011;62767;50.300;8.070;2024-02-23T14:35:21;1.00;;;0.60;;
74342;SDS011;62767;50.300;8.070;2024-02-23T14:37:46;0.73;;;0.60;;
74342;SDS011;62767;50.300;8.070;2024-02-23T14:40:12;1.40;;;0.60;;
74342;SDS011;62767;50.300;8.070;2024-02-23T14:42:39;0.95;;;0.50;;
74342;SDS011;62767;50.300;8.070;2024-02-23T14:49:57;1.13;;;0.52;;
74342;SDS011;62767;50.300;8.070;2024-02-23T14:52:22;1.20;;;0.50;;
74342;SDS011;62767;50.300;8.070;2024-02-23T14:54:48;0.95;;;0.40;;
74342;SDS011;62767;50.300;8.070;2024-02-23T14:57:13;0.50;;;0.38;;
74342;SDS011;62767;50.300;8.070;2024-02-23T14:59:39;1.33;;;0.50;;
74342;SDS011;62767;50.300;8.070;2024-02-23T15:02:12;0.57;;;0.38;;
74342;SDS011;62767;50.300;8.070;2024-02-23T15:04:47;0.82;;;0.50;;
74342;SDS011;62767;50.300;8.070;2024-02-23T15:07:12;0.57;;;0.50;;
74342;SDS011;62767;50.300;8.070;2024-02-23T15:09:38;1.02;;;0.52;;